createdAt,value
2022-10-11T00:00:13.083Z,7.70
2022-10-11T00:02:40.087Z,7.70
2022-10-11T00:05:08.283Z,7.60
2022-10-11T00:07:37.016Z,7.40
2022-10-11T00:10:06.009Z,7.40
2022-10-11T00:12:33.286Z,7.40
2022-10-11T00:15:00.217Z,7.50
2022-10-11T00:17:27.097Z,7.50
2022-10-11T00:19:53.992Z,7.40
2022-10-11T00:22:20.887Z,7.30
2022-10-11T00:24:47.779Z,7.40
2022-10-11T00:27:14.672Z,7.40
2022-10-11T00:29:41.572Z,7.30
2022-10-11T00:32:08.449Z,7.20
2022-10-11T00:34:35.358Z,7.20
2022-10-11T00:37:02.393Z,7.20
2022-10-11T00:39:29.381Z,7.00
2022-10-11T00:41:56.903Z,7.00
2022-10-11T00:44:26.732Z,7.00
2022-10-11T00:47:06.284Z,7.00
2022-10-11T00:49:42.558Z,6.90
2022-10-11T00:52:29.207Z,6.90
2022-10-11T00:55:02.557Z,6.90
2022-10-11T00:57:34.701Z,7.00
2022-10-11T01:00:01.926Z,6.80
2022-10-11T01:02:30.315Z,6.70
2022-10-11T01:05:11.647Z,6.60
2022-10-11T01:07:47.080Z,6.50
2022-10-11T01:10:14.862Z,6.50
2022-10-11T01:13:22.998Z,6.50
2022-10-11T01:16:13.573Z,6.40
2022-10-11T01:18:49.534Z,6.70
2022-10-11T01:21:45.876Z,6.80
2022-10-11T01:24:33.610Z,6.60
2022-10-11T01:27:19.156Z,6.40
2022-10-11T01:29:52.083Z,6.40
2022-10-11T01:32:27.837Z,6.40
2022-10-11T01:35:21.813Z,6.30
2022-10-11T01:37:57.856Z,6.40
2022-10-11T01:40:33.650Z,6.30
2022-10-11T01:43:02.550Z,6.40
2022-10-11T01:45:30.242Z,6.80
2022-10-11T01:48:08.875Z,6.90
2022-10-11T01:50:48.877Z,7.00
2022-10-11T01:53:38.685Z,6.80
2022-10-11T01:56:31.786Z,6.60
2022-10-11T01:59:20.829Z,6.60
2022-10-11T02:02:18.529Z,6.70
2022-10-11T02:04:55.802Z,6.80
2022-10-11T02:07:36.755Z,6.80
2022-10-11T02:10:21.226Z,6.60
2022-10-11T02:12:58.043Z,6.50
2022-10-11T02:15:28.591Z,6.50
2022-10-11T02:17:59.045Z,6.60
2022-10-11T02:20:29.178Z,6.70
2022-10-11T02:23:09.400Z,6.80
2022-10-11T02:25:37.301Z,6.70
2022-10-11T02:28:10.764Z,6.60
2022-10-11T02:30:38.829Z,6.40
2022-10-11T02:33:08.570Z,6.30
2022-10-11T02:35:41.185Z,6.20
2022-10-11T02:38:26.306Z,6.10
2022-10-11T02:41:10.930Z,6.10
2022-10-11T02:43:43.087Z,6.10
2022-10-11T02:46:11.119Z,6.20
2022-10-11T02:48:38.101Z,6.40
2022-10-11T02:51:05.337Z,6.50
2022-10-11T02:53:33.828Z,6.20
2022-10-11T02:56:00.946Z,6.20
2022-10-11T02:58:28.084Z,6.30
2022-10-11T03:00:55.052Z,6.50
2022-10-11T03:03:21.977Z,6.50
2022-10-11T03:05:48.935Z,6.50
2022-10-11T03:08:17.071Z,6.40
2022-10-11T03:10:44.117Z,6.40
2022-10-11T03:13:14.813Z,6.40
2022-10-11T03:15:47.526Z,6.40
2022-10-11T03:18:14.399Z,6.40
2022-10-11T03:20:41.302Z,6.40
2022-10-11T03:23:08.181Z,6.40
2022-10-11T03:25:35.200Z,6.30
2022-10-11T03:28:02.106Z,6.30
2022-10-11T03:30:29.048Z,6.20
2022-10-11T03:32:56.063Z,6.10
2022-10-11T03:35:23.061Z,6.10
2022-10-11T03:37:50.221Z,6.40
2022-10-11T03:40:17.221Z,6.40
2022-10-11T03:42:44.155Z,6.50
2022-10-11T03:45:11.362Z,6.60
2022-10-11T03:47:40.929Z,6.60
2022-10-11T03:50:09.311Z,6.70
2022-10-11T03:52:36.340Z,6.70
2022-10-11T03:55:04.457Z,6.70
2022-10-11T03:57:31.386Z,6.70
2022-10-11T03:59:58.509Z,6.70
2022-10-11T04:02:25.538Z,6.70
2022-10-11T04:04:52.451Z,6.70
2022-10-11T04:07:19.482Z,6.50
2022-10-11T04:09:46.426Z,6.40
2022-10-11T04:12:13.426Z,6.20
2022-10-11T04:14:40.646Z,6.20
2022-10-11T04:17:07.585Z,6.10
2022-10-11T04:19:36.782Z,6.00
2022-10-11T04:22:05.061Z,5.90
2022-10-11T04:24:32.175Z,6.00
2022-10-11T04:26:59.276Z,5.90
2022-10-11T04:29:31.434Z,5.80
2022-10-11T04:32:01.478Z,5.70
2022-10-11T04:34:28.350Z,5.70
2022-10-11T04:36:55.418Z,5.70
2022-10-11T04:39:22.356Z,6.00
2022-10-11T04:41:49.273Z,6.20
2022-10-11T04:44:16.124Z,6.30
2022-10-11T04:46:43.068Z,6.30
2022-10-11T04:49:09.951Z,6.40
2022-10-11T04:51:36.869Z,6.40
2022-10-11T04:54:03.825Z,6.40
2022-10-11T04:56:30.697Z,6.50
2022-10-11T04:58:57.570Z,6.50
2022-10-11T05:01:24.518Z,6.60
2022-10-11T05:03:51.373Z,6.60
2022-10-11T05:06:18.541Z,6.70
2022-10-11T05:08:45.580Z,6.70
2022-10-11T05:11:16.098Z,6.70
2022-10-11T05:13:43.833Z,6.70
2022-10-11T05:16:12.015Z,6.60
2022-10-11T05:18:40.209Z,6.50
2022-10-11T05:21:27.654Z,6.40
2022-10-11T05:23:56.399Z,6.40
2022-10-11T05:26:25.802Z,6.50
2022-10-11T05:28:52.922Z,6.40
2022-10-11T05:31:20.697Z,6.20
2022-10-11T05:33:47.914Z,6.00
2022-10-11T05:36:15.290Z,6.00
2022-10-11T05:38:42.249Z,5.90
2022-10-11T05:41:10.776Z,5.80
2022-10-11T05:43:37.921Z,5.70
2022-10-11T05:46:05.314Z,5.60
2022-10-11T05:48:32.461Z,5.50
2022-10-11T05:51:02.221Z,5.50
2022-10-11T05:53:29.245Z,5.30
2022-10-11T05:55:56.352Z,5.20
2022-10-11T05:58:23.725Z,5.00
2022-10-11T06:00:50.684Z,4.90
2022-10-11T06:03:17.724Z,4.80
2022-10-11T06:05:44.629Z,4.60
2022-10-11T06:08:11.580Z,4.50
2022-10-11T06:10:38.903Z,4.40
2022-10-11T06:13:07.041Z,4.30
2022-10-11T06:15:34.490Z,4.30
2022-10-11T06:18:01.553Z,4.50
2022-10-11T06:20:28.576Z,4.50
2022-10-11T06:22:55.562Z,4.50
2022-10-11T06:25:22.609Z,4.60
2022-10-11T06:27:49.538Z,4.50
2022-10-11T06:30:17.412Z,4.60
2022-10-11T06:32:44.607Z,4.70
2022-10-11T06:35:11.629Z,4.80
2022-10-11T06:37:38.588Z,5.00
2022-10-11T06:40:06.021Z,5.10
2022-10-11T06:42:32.929Z,5.70
2022-10-11T06:44:59.803Z,6.00
2022-10-11T06:47:26.709Z,5.90
2022-10-11T06:49:53.615Z,5.80
2022-10-11T06:52:20.534Z,6.00
2022-10-11T06:54:47.520Z,6.20
2022-10-11T06:57:14.533Z,6.40
2022-10-11T06:59:41.461Z,6.70
2022-10-11T07:02:09.522Z,6.90
2022-10-11T07:04:36.447Z,7.00
2022-10-11T07:07:03.375Z,7.10
2022-10-11T07:09:30.934Z,7.10
2022-10-11T07:11:57.870Z,7.20
2022-10-11T07:14:24.726Z,7.20
2022-10-11T07:16:51.642Z,7.30
2022-10-11T07:19:18.500Z,7.30
2022-10-11T07:21:45.550Z,7.40
2022-10-11T07:24:12.490Z,7.40
2022-10-11T07:26:39.582Z,7.50
2022-10-11T07:29:11.335Z,7.60
2022-10-11T07:31:40.905Z,7.60
2022-10-11T07:34:08.818Z,7.70
2022-10-11T07:36:36.036Z,7.80
2022-10-11T07:39:05.226Z,7.80
2022-10-11T07:41:32.162Z,7.80
2022-10-11T07:43:59.228Z,7.80
2022-10-11T07:46:26.126Z,7.90
2022-10-11T07:48:53.045Z,7.90
2022-10-11T07:51:22.416Z,7.90
2022-10-11T07:53:51.368Z,8.00
2022-10-11T07:56:21.054Z,8.00
2022-10-11T07:58:53.317Z,8.00
2022-10-11T08:01:21.272Z,8.10
2022-10-11T08:03:49.267Z,8.20
2022-10-11T08:06:19.916Z,8.30
2022-10-11T08:08:47.200Z,8.40
2022-10-11T08:11:32.566Z,8.50
2022-10-11T08:14:00.833Z,8.60
2022-10-11T08:16:28.131Z,8.60
2022-10-11T08:18:56.996Z,8.40
2022-10-11T08:21:26.780Z,8.20
2022-10-11T08:23:53.820Z,8.10
2022-10-11T08:26:21.203Z,8.10
2022-10-11T08:28:48.211Z,8.10
2022-10-11T08:31:16.305Z,8.10
2022-10-11T08:33:43.849Z,8.30
2022-10-11T08:36:12.109Z,8.40
2022-10-11T08:38:39.671Z,8.50
2022-10-11T08:41:46.252Z,8.70
2022-10-11T08:44:27.843Z,8.90
2022-10-11T08:47:19.498Z,8.90
2022-10-11T08:49:47.097Z,8.90
2022-10-11T08:52:31.211Z,9.00
2022-10-11T08:55:16.310Z,9.00
2022-10-11T08:57:49.150Z,9.00
2022-10-11T09:00:19.154Z,9.10
2022-10-11T09:03:08.878Z,9.00
2022-10-11T09:05:49.441Z,8.90
2022-10-11T09:08:28.298Z,8.90
2022-10-11T09:11:09.888Z,9.00
2022-10-11T09:13:54.588Z,9.10
2022-10-11T09:17:00.362Z,9.30
2022-10-11T09:19:57.654Z,9.50
2022-10-11T09:22:42.645Z,9.70
2022-10-11T09:25:15.745Z,9.90
2022-10-11T09:28:08.333Z,10.20
2022-10-11T09:30:38.747Z,10.50
2022-10-11T09:33:18.996Z,10.70
2022-10-11T09:35:49.652Z,10.70
2022-10-11T09:38:31.502Z,11.00
2022-10-11T09:41:25.345Z,11.40
2022-10-11T09:43:52.839Z,11.80
2022-10-11T09:46:42.711Z,12.20
2022-10-11T09:49:14.306Z,12.60
2022-10-11T09:51:46.547Z,12.90
2022-10-11T09:54:13.540Z,13.00
2022-10-11T09:56:43.839Z,13.20
2022-10-11T09:59:30.682Z,13.50
2022-10-11T10:02:20.800Z,13.60
2022-10-11T10:05:08.622Z,13.60
2022-10-11T10:07:37.366Z,13.70
2022-10-11T10:10:26.510Z,14.00
2022-10-11T10:12:55.541Z,14.40
2022-10-11T10:15:23.621Z,14.40
2022-10-11T10:17:52.878Z,14.50
2022-10-11T10:20:25.819Z,14.70
2022-10-11T10:22:53.374Z,14.90
2022-10-11T10:25:31.935Z,15.20
2022-10-11T10:28:01.480Z,15.00
2022-10-11T10:30:34.487Z,14.60
2022-10-11T10:33:10.936Z,14.70
2022-10-11T10:35:46.699Z,14.50
2022-10-11T10:38:17.401Z,14.60
2022-10-11T10:41:00.836Z,14.80
2022-10-11T10:43:35.435Z,14.60
2022-10-11T10:46:08.543Z,14.40
2022-10-11T10:52:35.924Z,14.60
2022-10-11T10:55:39.801Z,14.80
2022-10-11T10:58:13.997Z,14.70
2022-10-11T11:00:48.498Z,14.70
2022-10-11T11:03:26.778Z,14.90
2022-10-11T11:06:21.175Z,14.90
2022-10-11T11:08:48.022Z,14.60
2022-10-11T11:11:36.784Z,14.80
2022-10-11T11:14:06.349Z,14.70
2022-10-11T11:16:38.540Z,14.90
2022-10-11T11:19:23.699Z,14.90
2022-10-11T11:21:53.307Z,14.70
2022-10-11T11:24:38.790Z,15.00
2022-10-11T11:27:38.870Z,14.80
2022-10-11T11:30:09.106Z,14.60
2022-10-11T11:32:45.580Z,14.30
2022-10-11T11:35:32.841Z,14.50
2022-10-11T11:38:10.658Z,14.60
2022-10-11T11:40:42.734Z,14.60
2022-10-11T11:44:00.801Z,14.50
2022-10-11T11:46:40.331Z,14.50
2022-10-11T11:49:40.451Z,14.40
2022-10-11T11:52:13.179Z,14.90
2022-10-11T11:55:05.510Z,15.20
2022-10-11T11:57:53.822Z,15.10
2022-10-11T12:00:24.416Z,15.30
2022-10-11T12:03:16.568Z,15.40
2022-10-11T12:06:12.463Z,15.70
2022-10-11T12:08:47.585Z,15.50
2022-10-11T12:11:35.240Z,16.20
2022-10-11T12:14:35.391Z,16.30
2022-10-11T12:17:23.361Z,15.80
2022-10-11T12:20:09.359Z,16.60
2022-10-11T12:23:02.855Z,17.50
2022-10-11T12:25:34.638Z,17.00
2022-10-11T12:28:23.148Z,17.10
2022-10-11T12:30:52.558Z,16.70
2022-10-11T12:33:24.586Z,17.10
2022-10-11T12:35:54.411Z,17.40
2022-10-11T12:38:28.882Z,17.50
2022-10-11T12:41:02.949Z,17.60
2022-10-11T12:43:36.458Z,17.90
2022-10-11T12:46:29.272Z,17.80
2022-10-11T12:48:56.136Z,17.10
2022-10-11T12:51:39.985Z,16.70
2022-10-11T12:54:31.043Z,16.70
2022-10-11T12:57:29.248Z,16.40
2022-10-11T13:00:31.156Z,16.40
2022-10-11T13:03:00.930Z,16.50
2022-10-11T13:05:45.192Z,15.90
2022-10-11T13:08:28.626Z,16.10
2022-10-11T13:11:01.168Z,16.80
2022-10-11T13:13:47.713Z,16.90
2022-10-11T13:16:18.645Z,17.20
2022-10-11T13:18:48.235Z,17.30
2022-10-11T13:21:26.918Z,17.00
2022-10-11T13:24:03.391Z,16.70
2022-10-11T13:26:31.804Z,16.10
2022-10-11T13:29:00.612Z,15.70
2022-10-11T13:31:27.710Z,15.80
2022-10-11T13:33:56.704Z,16.40
2022-10-11T13:36:27.081Z,16.80
2022-10-11T13:38:57.641Z,17.40
2022-10-11T13:41:27.688Z,17.50
2022-10-11T13:43:57.243Z,17.80
2022-10-11T13:46:26.563Z,17.20
2022-10-11T13:49:05.167Z,16.90
2022-10-11T13:51:37.098Z,17.20
2022-10-11T13:54:13.140Z,17.30
2022-10-11T13:56:51.242Z,17.40
2022-10-11T13:59:24.084Z,17.60
2022-10-11T14:01:57.967Z,17.60
2022-10-11T14:04:29.501Z,17.70
2022-10-11T14:07:02.769Z,17.90
2022-10-11T14:09:37.800Z,17.90
2022-10-11T14:12:23.209Z,18.10
2022-10-11T14:14:50.119Z,17.70
2022-10-11T14:17:20.685Z,17.40
2022-10-11T14:20:07.350Z,17.30
2022-10-11T14:22:35.754Z,17.70
2022-10-11T14:25:02.718Z,17.90
2022-10-11T14:27:29.714Z,18.10
2022-10-11T14:30:20.220Z,18.30
2022-10-11T14:32:44.139Z,18.30
2022-10-11T14:35:21.844Z,18.00
2022-10-11T14:37:48.851Z,18.40
2022-10-11T14:40:24.497Z,17.80
2022-10-11T14:42:51.800Z,17.80
2022-10-11T14:45:21.199Z,17.90
2022-10-11T14:47:48.668Z,18.00
2022-10-11T14:50:21.136Z,17.90
2022-10-11T14:52:48.073Z,18.30
2022-10-11T14:55:15.015Z,18.20
2022-10-11T14:57:41.894Z,18.20
2022-10-11T15:00:24.000Z,18.30
2022-10-11T15:02:52.848Z,18.50
2022-10-11T15:05:23.131Z,18.40
2022-10-11T15:07:50.814Z,17.90
2022-10-11T15:10:30.558Z,18.10
2022-10-11T15:12:57.795Z,17.90
2022-10-11T15:15:27.762Z,18.00
2022-10-11T15:17:56.730Z,18.40
2022-10-11T15:20:36.703Z,18.40
2022-10-11T15:23:05.035Z,18.20
2022-10-11T15:25:32.371Z,18.30
2022-10-11T15:27:59.297Z,18.30
2022-10-11T15:30:30.933Z,18.00
2022-10-11T15:32:58.010Z,17.60
2022-10-11T15:35:26.336Z,17.10
2022-10-11T15:37:56.477Z,16.80
2022-10-11T15:40:27.794Z,16.50
2022-10-11T15:42:55.233Z,15.90
2022-10-11T15:45:23.209Z,15.60
2022-10-11T15:47:50.412Z,15.10
2022-10-11T15:50:33.867Z,14.90
2022-10-11T15:53:03.878Z,14.70
2022-10-11T15:55:32.144Z,14.60
2022-10-11T15:57:59.839Z,14.60
2022-10-11T16:00:27.349Z,14.40
2022-10-11T16:02:55.407Z,14.20
2022-10-11T16:05:24.755Z,13.90
2022-10-11T16:07:52.923Z,13.60
2022-10-11T16:10:20.861Z,13.20
2022-10-11T16:12:48.399Z,12.90
2022-10-11T16:15:15.525Z,12.50
2022-10-11T16:17:42.485Z,12.20
2022-10-11T16:20:09.588Z,12.00
2022-10-11T16:22:38.859Z,11.70
2022-10-11T16:25:07.730Z,11.50
2022-10-11T16:27:36.908Z,11.20
2022-10-11T16:30:05.268Z,11.00
2022-10-11T16:32:33.890Z,10.90
2022-10-11T16:35:00.981Z,10.80
2022-10-11T16:37:28.053Z,10.70
2022-10-11T16:39:55.013Z,10.40
2022-10-11T16:42:21.931Z,10.30
2022-10-11T16:44:48.985Z,10.10
2022-10-11T16:47:16.711Z,10.00
2022-10-11T16:49:43.634Z,10.00
2022-10-11T16:52:11.040Z,9.80
2022-10-11T16:54:38.558Z,9.60
2022-10-11T16:57:05.864Z,9.50
2022-10-11T16:59:32.851Z,9.30
2022-10-11T17:01:59.781Z,9.20
2022-10-11T17:04:27.053Z,9.00
2022-10-11T17:06:55.113Z,8.90
2022-10-11T17:09:22.049Z,8.70
2022-10-11T17:11:49.001Z,8.60
2022-10-11T17:14:16.246Z,8.50
2022-10-11T17:16:43.404Z,8.40
2022-10-11T17:19:15.359Z,8.30
2022-10-11T17:21:42.409Z,8.20
2022-10-11T17:24:09.506Z,8.10
2022-10-11T17:26:36.377Z,8.10
2022-10-11T17:29:03.458Z,8.10
2022-10-11T17:31:30.645Z,8.10
2022-10-11T17:34:01.234Z,8.10
2022-10-11T17:36:31.876Z,8.20
2022-10-11T17:39:00.520Z,8.20
2022-10-11T17:41:31.854Z,8.10
2022-10-11T17:43:59.614Z,8.10
2022-10-11T17:46:28.112Z,8.00
2022-10-11T17:48:55.674Z,7.90
2022-10-11T17:51:22.761Z,7.90
2022-10-11T17:53:50.979Z,7.90
2022-10-11T17:56:25.412Z,7.70
2022-10-11T17:58:56.898Z,7.70
2022-10-11T18:01:26.076Z,7.50
2022-10-11T18:03:57.198Z,7.40
2022-10-11T18:06:26.384Z,7.30
2022-10-11T18:08:53.845Z,7.30
2022-10-11T18:11:21.479Z,7.20
2022-10-11T18:13:49.982Z,7.20
2022-10-11T18:16:19.366Z,7.30
2022-10-11T18:18:47.218Z,7.30
2022-10-11T18:21:15.090Z,7.40
2022-10-11T18:23:42.531Z,7.20
2022-10-11T18:26:29.416Z,7.10
2022-10-11T18:28:57.700Z,7.00
2022-10-11T18:31:27.532Z,7.10
2022-10-11T18:33:55.463Z,7.00
2022-10-11T18:36:28.331Z,6.90
2022-10-11T18:38:58.329Z,6.80
2022-10-11T18:41:30.768Z,6.70
2022-10-11T18:44:01.208Z,6.70
2022-10-11T18:46:28.776Z,6.60
2022-10-11T18:48:57.000Z,6.60
2022-10-11T18:51:30.814Z,6.50
2022-10-11T18:54:01.317Z,6.40
2022-10-11T18:56:29.715Z,6.30
2022-10-11T18:58:57.959Z,6.30
2022-10-11T19:01:44.154Z,6.30
2022-10-11T19:04:13.061Z,6.40
2022-10-11T19:06:42.991Z,6.30
2022-10-11T19:09:22.366Z,6.20
2022-10-11T19:11:54.454Z,6.20
2022-10-11T19:14:25.846Z,6.10
2022-10-11T19:16:53.777Z,6.10
2022-10-11T19:19:26.592Z,6.10
2022-10-11T19:21:53.566Z,6.20
2022-10-11T19:24:24.101Z,6.30
2022-10-11T19:26:53.078Z,6.30
2022-10-11T19:29:23.386Z,6.30
2022-10-11T19:31:53.616Z,6.30
2022-10-11T19:34:21.443Z,6.30
2022-10-11T19:36:50.791Z,6.20
2022-10-11T19:39:18.832Z,6.10
2022-10-11T19:41:46.189Z,6.10
2022-10-11T19:44:14.131Z,6.00
2022-10-11T19:46:58.320Z,5.90
2022-10-11T19:49:27.486Z,5.90
2022-10-11T19:51:55.317Z,5.80
2022-10-11T19:54:22.816Z,5.80
2022-10-11T19:56:49.767Z,5.80
2022-10-11T19:59:17.102Z,5.70
2022-10-11T20:01:48.112Z,5.60
2022-10-11T20:04:47.077Z,5.60
2022-10-11T20:07:06.192Z,5.60
2022-10-11T20:09:33.186Z,5.50
2022-10-11T20:12:00.088Z,5.50
2022-10-11T20:14:27.059Z,5.40
2022-10-11T20:16:53.978Z,5.30
2022-10-11T20:19:26.283Z,5.30
2022-10-11T20:21:56.324Z,5.30
2022-10-11T20:24:23.213Z,5.40
2022-10-11T20:26:50.092Z,5.30
2022-10-11T20:29:16.993Z,5.20
2022-10-11T20:31:43.945Z,5.30
2022-10-11T20:34:11.326Z,5.20
2022-10-11T20:36:38.386Z,5.20
2022-10-11T20:39:05.813Z,5.10
2022-10-11T20:41:36.918Z,5.00
2022-10-11T20:44:04.732Z,5.00
2022-10-11T20:46:37.795Z,4.90
2022-10-11T20:49:11.253Z,4.80
2022-10-11T20:51:39.761Z,4.90
2022-10-11T20:54:07.246Z,4.80
2022-10-11T20:56:34.331Z,4.80
2022-10-11T20:59:01.424Z,5.00
2022-10-11T21:01:37.168Z,5.30
2022-10-11T21:04:05.009Z,5.30
2022-10-11T21:06:33.159Z,5.20
2022-10-11T21:09:00.808Z,5.00
2022-10-11T21:11:29.464Z,5.00
2022-10-11T21:14:01.737Z,4.90
2022-10-11T21:16:29.408Z,4.80
2022-10-11T21:18:58.432Z,4.80
2022-10-11T21:21:26.825Z,4.70
2022-10-11T21:24:01.826Z,4.70
2022-10-11T21:26:30.034Z,4.70
2022-10-11T21:28:59.132Z,4.60
2022-10-11T21:31:29.747Z,4.70
2022-10-11T21:34:00.987Z,4.80
2022-10-11T21:36:27.948Z,4.70
2022-10-11T21:38:54.935Z,4.70
2022-10-11T21:41:24.454Z,4.70
2022-10-11T21:43:51.979Z,4.60
2022-10-11T21:46:32.475Z,4.50
2022-10-11T21:49:08.954Z,4.50
2022-10-11T21:51:35.892Z,4.50
2022-10-11T21:54:02.860Z,4.40
2022-10-11T21:56:30.235Z,4.40
2022-10-11T21:58:57.669Z,4.40
2022-10-11T22:01:24.789Z,4.40
2022-10-11T22:03:54.755Z,4.30
2022-10-11T22:06:22.448Z,4.30
2022-10-11T22:08:50.084Z,4.20
2022-10-11T22:11:17.597Z,4.20
2022-10-11T22:13:45.087Z,4.20
2022-10-11T22:16:13.512Z,4.20
2022-10-11T22:18:41.513Z,4.20
2022-10-11T22:21:13.506Z,4.30
2022-10-11T22:23:41.712Z,4.20
2022-10-11T22:26:11.520Z,4.30
2022-10-11T22:28:38.964Z,4.40
2022-10-11T22:31:07.078Z,4.60
2022-10-11T22:33:34.684Z,4.70
2022-10-11T22:36:03.815Z,4.60
2022-10-11T22:38:31.108Z,4.50
2022-10-11T22:40:58.897Z,4.50
2022-10-11T22:43:25.967Z,4.50
2022-10-11T22:45:52.862Z,4.40
2022-10-11T22:48:19.883Z,4.40
2022-10-11T22:50:46.977Z,4.30
2022-10-11T22:53:14.680Z,4.40
2022-10-11T22:55:41.837Z,4.40
2022-10-11T22:58:09.002Z,4.40
2022-10-11T23:00:36.637Z,4.50
2022-10-11T23:03:03.802Z,4.50
2022-10-11T23:05:30.734Z,4.50
2022-10-11T23:07:57.609Z,4.50
2022-10-11T23:10:24.521Z,4.50
2022-10-11T23:12:51.607Z,4.50
2022-10-11T23:15:18.674Z,4.40
2022-10-11T23:17:45.746Z,4.40
2022-10-11T23:20:12.666Z,4.40
2022-10-11T23:22:39.535Z,4.30
2022-10-11T23:25:07.115Z,4.20
2022-10-11T23:27:33.979Z,4.10
2022-10-11T23:30:00.858Z,4.10
2022-10-11T23:32:27.705Z,4.10
2022-10-11T23:34:54.607Z,4.10
2022-10-11T23:37:21.557Z,3.90
2022-10-11T23:39:48.465Z,3.90
2022-10-11T23:42:15.328Z,3.90
2022-10-11T23:44:42.300Z,3.80
2022-10-11T23:47:09.198Z,3.80
2022-10-11T23:49:36.082Z,3.60
2022-10-11T23:52:02.942Z,3.60
2022-10-11T23:54:29.886Z,3.50
2022-10-11T23:56:57.165Z,3.50
2022-10-11T23:59:24.099Z,3.60
